Time;durP1;ratioP1;P1;durP2;ratioP2;P2;SDS_P1;SDS_P2;PMS_P1;PMS_P2;Temp;Humidity;BMP_temperature;BMP_pressure;BME280_temperature;BME280_humidity;BME280_pressure;Samples;Min_cycle;Max_cycle;Signal;HPM_P1;HPM_P2
2022/06/27 00:01:09;;;;;;;6.57;4.00;;;;;;;17.38;100.00;101540.75;4992526;28;20046;-67
2022/06/27 00:03:34;;;;;;;10.35;4.07;;;;;;;17.35;100.00;101541.78;4993349;28;20050;-67
2022/06/27 00:06:00;;;;;;;5.75;4.10;;;;;;;17.34;100.00;101546.31;4993290;28;20030;-67
2022/06/27 00:08:25;;;;;;;11.00;4.20;;;;;;;17.31;100.00;101549.16;4993095;28;20038;-66
2022/06/27 00:10:51;;;;;;;9.10;3.55;;;;;;;17.29;100.00;101543.03;4992254;28;20062;-67
2022/06/27 00:13:16;;;;;;;6.47;3.78;;;;;;;17.29;100.00;101544.84;4993019;28;20034;-67
2022/06/27 00:15:42;;;;;;;11.88;4.28;;;;;;;17.27;100.00;101552.97;4992648;28;20053;-66
2022/06/27 00:18:07;;;;;;;7.43;3.60;;;;;;;17.27;100.00;101549.44;4992600;28;20041;-66
2022/06/27 00:20:33;;;;;;;5.32;3.50;;;;;;;17.29;100.00;101548.41;4993231;28;20023;-67
2022/06/27 00:22:58;;;;;;;8.45;3.70;;;;;;;17.28;100.00;101549.34;4992805;28;20108;-67
2022/06/27 00:25:24;;;;;;;7.57;3.80;;;;;;;17.27;100.00;101554.81;4993123;28;20534;-67
2022/06/27 00:27:49;;;;;;;6.55;4.00;;;;;;;17.25;100.00;101554.03;4992782;28;20018;-67
2022/06/27 00:30:14;;;;;;;11.93;4.03;;;;;;;17.24;100.00;101552.31;4993215;28;20038;-66
2022/06/27 00:32:40;;;;;;;7.43;4.22;;;;;;;17.20;100.00;101551.66;4991600;28;20125;-67
2022/06/27 00:35:06;;;;;;;7.85;3.83;;;;;;;17.17;100.00;101552.72;4975562;28;20093;-67
2022/06/27 00:37:32;;;;;;;9.13;4.20;;;;;;;17.15;100.00;101562.63;4973419;28;20062;-67
2022/06/27 00:39:57;;;;;;;7.10;4.05;;;;;;;17.14;100.00;101557.38;4990021;28;20030;-66
2022/06/27 00:42:22;;;;;;;6.85;4.15;;;;;;;17.13;100.00;101571.72;4992922;28;20058;-67
2022/06/27 00:44:48;;;;;;;7.13;4.20;;;;;;;17.10;100.00;101575.44;4992146;28;20125;-67
2022/06/27 00:47:14;;;;;;;9.43;4.43;;;;;;;17.11;100.00;101570.94;4991825;28;20039;-67
2022/06/27 00:49:41;;;;;;;7.35;4.25;;;;;;;17.09;100.00;101583.56;4992585;28;20030;-67
2022/06/27 00:52:09;;;;;;;7.30;3.80;;;;;;;17.10;100.00;101580.78;4992723;28;20077;-67
2022/06/27 00:54:36;;;;;;;6.75;4.00;;;;;;;17.12;100.00;101581.56;4991839;28;20026;-67
2022/06/27 00:57:02;;;;;;;7.35;4.13;;;;;;;17.12;100.00;101588.72;4992583;28;20038;-68
2022/06/27 00:59:28;;;;;;;8.50;4.28;;;;;;;17.10;100.00;101579.94;4991893;28;20054;-67
2022/06/27 01:01:53;;;;;;;9.30;4.57;;;;;;;17.09;100.00;101586.22;4992617;28;20034;-67
2022/06/27 01:04:18;;;;;;;5.90;4.00;;;;;;;17.07;100.00;101580.94;4990845;28;20113;-67
2022/06/27 01:06:44;;;;;;;6.75;4.20;;;;;;;17.04;100.00;101573.97;4992743;28;20022;-67
2022/06/27 01:09:09;;;;;;;15.73;5.75;;;;;;;17.04;100.00;101575.78;4992665;28;20033;-67
2022/06/27 01:11:35;;;;;;;9.48;4.47;;;;;;;17.01;100.00;101568.81;4992317;28;20112;-68
2022/06/27 01:14:00;;;;;;;8.73;4.20;;;;;;;16.98;100.00;101571.69;4990880;28;20060;-66
2022/06/27 01:16:26;;;;;;;9.43;4.25;;;;;;;16.97;100.00;101569.09;4992175;28;20486;-67
2022/06/27 01:18:51;;;;;;;12.82;4.78;;;;;;;16.96;100.00;101565.56;4992211;28;20038;-67
2022/06/27 01:21:21;;;;;;;8.68;4.80;;;;;;;16.96;100.00;101560.22;4992090;28;20019;-67
2022/06/27 01:23:47;;;;;;;7.53;4.18;;;;;;;16.96;100.00;101557.53;4991990;28;20030;-66
2022/06/27 01:26:13;;;;;;;7.30;4.28;;;;;;;16.94;100.00;101559.44;4992000;28;20410;-66
2022/06/27 01:28:39;;;;;;;7.63;4.93;;;;;;;16.92;100.00;101561.34;4991764;28;20026;-67
2022/06/27 01:31:04;;;;;;;8.38;5.00;;;;;;;16.90;100.00;101560.53;4996001;28;20034;-67
2022/06/27 01:33:30;;;;;;;9.63;4.35;;;;;;;16.93;100.00;101570.22;4996340;28;20514;-68
2022/06/27 01:36:41;;;;;;;9.35;4.55;;;;;;;16.95;100.00;101573.69;4994635;28;20485;-67
2022/06/27 01:38:41;;;;;;;8.35;4.45;;;;;;;16.97;100.00;101572.63;4995401;28;20038;-67
2022/06/27 01:41:06;;;;;;;8.18;4.90;;;;;;;16.98;100.00;101570.81;4996046;28;20073;-68
2022/06/27 01:43:32;;;;;;;8.85;4.50;;;;;;;16.96;100.00;101570.06;4996423;28;20034;-68
2022/06/27 01:45:57;;;;;;;8.15;4.88;;;;;;;16.94;100.00;101570.13;4994446;28;20117;-64
2022/06/27 01:48:24;;;;;;;8.65;4.78;;;;;;;16.94;100.00;101569.28;4995998;28;20030;-67
2022/06/27 01:50:54;;;;;;;7.45;4.65;;;;;;;16.91;100.00;101556.09;4994922;28;20026;-67
2022/06/27 01:53:20;;;;;;;8.52;4.80;;;;;;;16.92;100.00;101563.16;4995565;28;20035;-67
2022/06/27 01:55:46;;;;;;;9.07;5.15;;;;;;;16.89;100.00;101572.19;4995262;28;20038;-68
2022/06/27 01:58:11;;;;;;;7.30;4.80;;;;;;;16.88;100.00;101559.78;4995951;28;20034;-65
2022/06/27 02:00:37;;;;;;;6.68;4.82;;;;;;;16.88;100.00;101566.00;5010606;28;20050;-67
2022/06/27 02:03:04;;;;;;;8.98;5.25;;;;;;;16.86;100.00;101565.22;4994882;28;20138;-67
2022/06/27 02:05:29;;;;;;;8.73;5.70;;;;;;;16.86;100.00;101562.53;4995456;28;20027;-67
2022/06/27 02:07:57;;;;;;;7.78;5.60;;;;;;;16.88;100.00;101554.44;4995183;28;20037;-67
2022/06/27 02:10:22;;;;;;;9.65;5.50;;;;;;;16.90;100.00;101540.97;4995645;28;20045;-67
2022/06/27 02:12:49;;;;;;;13.98;6.00;;;;;;;16.90;100.00;101530.25;4995384;28;20585;-67
2022/06/27 02:15:14;;;;;;;8.68;5.90;;;;;;;16.87;100.00;101528.63;4994375;28;20505;-67
2022/06/27 02:17:39;;;;;;;9.73;5.97;;;;;;;16.86;100.00;101525.09;5006929;28;20066;-67
2022/06/27 02:20:08;;;;;;;10.50;5.75;;;;;;;16.84;100.00;101524.34;4974994;28;20034;-67
2022/06/27 02:22:34;;;;;;;6.70;5.18;;;;;;;16.82;100.00;101514.69;4976110;28;20050;-68
2022/06/27 02:24:59;;;;;;;9.65;5.93;;;;;;;16.77;100.00;101525.66;4976836;28;20569;-69
2022/06/27 02:27:26;;;;;;;8.82;6.20;;;;;;;16.74;100.00;101533.00;4981424;28;20034;-68
2022/06/27 02:29:52;;;;;;;14.30;6.43;;;;;;;16.74;100.00;101538.34;4994277;28;20462;-67
2022/06/27 02:32:17;;;;;;;10.75;5.95;;;;;;;16.77;100.00;101544.38;4995333;28;20089;-66
2022/06/27 02:34:43;;;;;;;8.18;6.03;;;;;;;16.76;100.00;101537.28;4994852;28;20030;-66
2022/06/27 02:37:09;;;;;;;12.02;6.65;;;;;;;16.76;100.00;101536.44;4993785;28;20473;-67
2022/06/27 02:39:37;;;;;;;9.02;5.68;;;;;;;16.74;100.00;101533.00;4993682;28;20046;-68
2022/06/27 02:42:05;;;;;;;11.85;7.30;;;;;;;16.68;100.00;101531.56;4995247;28;20026;-68
2022/06/27 02:44:31;;;;;;;12.35;6.88;;;;;;;16.63;100.00;101522.94;4991472;28;20109;-67
2022/06/27 02:46:57;;;;;;;8.68;6.30;;;;;;;16.60;100.00;101520.44;4993702;28;20032;-67
2022/06/27 02:49:22;;;;;;;10.38;6.25;;;;;;;16.53;100.00;101526.19;4995023;28;20030;-67
2022/06/27 02:52:02;;;;;;;10.68;6.20;;;;;;;16.46;100.00;101531.94;4994981;28;20034;-68
2022/06/27 02:54:42;;;;;;;10.30;6.38;;;;;;;16.41;100.00;101520.66;5009532;28;20029;-68
2022/06/27 02:57:18;;;;;;;11.18;7.45;;;;;;;16.32;100.00;101522.94;4975669;28;20027;-69
2022/06/27 02:59:45;;;;;;;10.90;6.75;;;;;;;16.26;100.00;101519.75;4990156;28;20411;-66
2022/06/27 03:02:12;;;;;;;12.02;7.03;;;;;;;16.17;100.00;101518.47;4975431;28;20031;-67
2022/06/27 03:04:38;;;;;;;12.57;7.07;;;;;;;16.11;100.00;101517.00;4974952;28;20034;-67
2022/06/27 03:07:04;;;;;;;9.50;6.15;;;;;;;16.07;100.00;101518.13;5005807;28;20390;-67
2022/06/27 03:09:30;;;;;;;11.00;6.38;;;;;;;16.04;100.00;101513.84;4994634;28;20038;-67
2022/06/27 03:11:55;;;;;;;9.30;6.38;;;;;;;15.98;100.00;101508.00;4994604;28;20037;-68
2022/06/27 03:14:20;;;;;;;10.05;6.55;;;;;;;15.95;100.00;101502.84;4994540;28;20038;-67
2022/06/27 03:16:46;;;;;;;11.63;7.10;;;;;;;15.89;100.00;101496.00;4993899;28;20032;-67
2022/06/27 03:19:12;;;;;;;12.30;6.55;;;;;;;15.86;100.00;101497.03;4976902;28;20034;-67
2022/06/27 03:21:37;;;;;;;10.25;6.75;;;;;;;15.82;100.00;101498.19;4994750;28;20041;-67
2022/06/27 03:24:03;;;;;;;10.48;6.60;;;;;;;15.79;100.00;101495.63;4993214;28;20113;-67
2022/06/27 03:26:29;;;;;;;11.82;6.45;;;;;;;15.72;100.00;101488.94;4993310;28;20225;-67
2022/06/27 03:28:54;;;;;;;10.75;6.65;;;;;;;15.70;100.00;101497.03;4994745;28;20037;-67
2022/06/27 03:31:19;;;;;;;10.13;6.63;;;;;;;15.71;100.00;101495.22;4994341;28;20113;-67
2022/06/27 03:33:44;;;;;;;12.23;6.85;;;;;;;15.69;100.00;101505.09;4994410;28;20108;-67
2022/06/27 03:36:10;;;;;;;12.50;7.25;;;;;;;15.68;100.00;101504.25;4994064;28;20026;-68
2022/06/27 03:38:36;;;;;;;11.40;7.50;;;;;;;15.68;100.00;101512.25;4993436;28;20038;-68
2022/06/27 03:41:01;;;;;;;11.35;7.05;;;;;;;15.70;100.00;101513.06;4992879;28;20130;-67
2022/06/27 03:43:27;;;;;;;11.90;6.70;;;;;;;15.67;100.00;101509.69;4992081;28;20018;-67
2022/06/27 03:45:54;;;;;;;12.05;7.25;;;;;;;15.67;100.00;101507.03;4991609;28;20482;-67
2022/06/27 03:51:04;;;;;;;13.35;6.75;;;;;;;15.67;100.00;101491.84;4993654;28;20033;-67
2022/06/27 03:53:29;;;;;;;10.35;6.30;;;;;;;15.66;100.00;101484.78;4993525;28;20034;-67
2022/06/27 03:55:54;;;;;;;11.73;7.28;;;;;;;15.62;100.00;101487.72;4993442;28;20022;-67
2022/06/27 03:58:20;;;;;;;12.75;6.70;;;;;;;15.60;100.00;101489.59;4992683;28;20029;-66
2022/06/27 04:00:45;;;;;;;11.20;6.78;;;;;;;15.61;100.00;101494.84;4993456;28;20049;-67
2022/06/27 04:03:10;;;;;;;14.73;7.50;;;;;;;15.59;100.00;101488.75;4993086;28;20196;-67
2022/06/27 04:05:36;;;;;;;11.50;7.43;;;;;;;15.63;100.00;101482.28;4993274;28;20064;-66
2022/06/27 04:08:02;;;;;;;12.05;8.07;;;;;;;15.68;100.00;101493.56;4992919;28;20490;-67
2022/06/27 04:10:27;;;;;;;12.13;7.82;;;;;;;15.76;100.00;101497.63;4993109;28;20062;-68
2022/06/27 04:12:53;;;;;;;15.73;7.78;;;;;;;15.88;100.00;101504.97;4993546;28;20072;-68
2022/06/27 04:15:18;;;;;;;11.32;6.50;;;;;;;16.07;100.00;101496.75;4993382;28;20030;-67
2022/06/27 04:17:44;;;;;;;12.88;6.93;;;;;;;16.19;100.00;101482.72;4991910;28;20031;-66
2022/06/27 04:20:09;;;;;;;10.23;6.45;;;;;;;16.22;100.00;101485.19;4992527;28;20034;-66
2022/06/27 04:22:35;;;;;;;10.75;6.82;;;;;;;16.14;100.00;101482.13;4993346;28;20052;-67
2022/06/27 04:25:01;;;;;;;14.20;6.55;;;;;;;16.17;100.00;101500.63;4991401;28;20492;-68
2022/06/27 04:27:27;;;;;;;12.15;6.70;;;;;;;16.26;100.00;101491.22;4989077;28;20026;-67
2022/06/27 04:29:53;;;;;;;10.27;6.70;;;;;;;16.31;100.00;101498.97;4991053;28;20030;-68
2022/06/27 04:32:19;;;;;;;10.60;6.65;;;;;;;16.37;100.00;101483.44;4991259;28;20137;-68
2022/06/27 04:34:45;;;;;;;10.43;7.22;;;;;;;16.41;100.00;101468.09;4992470;28;20029;-68
2022/06/27 04:37:11;;;;;;;14.57;6.97;;;;;;;16.41;100.00;101448.50;4990118;28;20113;-67
2022/06/27 04:39:37;;;;;;;12.88;6.60;;;;;;;16.44;100.00;101445.66;4985957;28;20034;-67
2022/06/27 04:42:03;;;;;;;10.15;6.18;;;;;;;16.48;100.00;101450.72;4971528;28;20030;-67
2022/06/27 04:44:28;;;;;;;9.35;6.30;;;;;;;16.60;100.00;101446.44;4971737;28;20039;-67
2022/06/27 04:46:54;;;;;;;10.68;6.38;;;;;;;16.67;100.00;101438.91;4971474;28;20062;-68
2022/06/27 04:49:19;;;;;;;10.90;5.82;;;;;;;16.70;100.00;101430.69;4975596;28;20105;-68
2022/06/27 04:51:49;;;;;;;10.23;6.40;;;;;;;16.71;100.00;101432.41;4985351;28;20030;-66
2022/06/27 04:54:16;;;;;;;8.90;5.50;;;;;;;16.77;100.00;101428.50;4983175;28;20018;-67
2022/06/27 04:56:42;;;;;;;11.30;6.47;;;;;;;16.83;100.00;101436.16;5003042;28;20031;-67
2022/06/27 04:59:09;;;;;;;10.60;6.00;;;;;;;16.83;100.00;101441.50;4983781;28;20118;-67
2022/06/27 05:01:34;;;;;;;7.97;5.50;;;;;;;16.82;100.00;101448.66;4987444;28;20489;-67
2022/06/27 05:04:00;;;;;;;8.90;5.63;;;;;;;16.77;100.00;101449.91;4990397;28;20118;-68
2022/06/27 05:06:25;;;;;;;8.57;5.28;;;;;;;16.70;100.00;101449.41;4991498;28;20118;-68
2022/06/27 05:08:51;;;;;;;11.23;7.00;;;;;;;16.62;100.00;101438.31;4992238;28;20026;-68
2022/06/27 05:11:16;;;;;;;8.77;6.18;;;;;;;16.54;100.00;101441.47;4990996;28;20041;-67
2022/06/27 05:13:42;;;;;;;12.88;6.30;;;;;;;16.52;100.00;101454.94;4974530;28;20040;-68
2022/06/27 05:16:07;;;;;;;11.02;6.15;;;;;;;16.61;100.00;101461.53;4986963;28;20471;-67
2022/06/27 05:18:33;;;;;;;9.10;5.90;;;;;;;16.70;100.00;101460.97;4972451;28;20038;-67
2022/06/27 05:20:58;;;;;;;9.95;5.82;;;;;;;16.83;100.00;101466.44;4979138;28;20058;-67
2022/06/27 05:23:24;;;;;;;10.57;5.53;;;;;;;17.01;100.00;101477.84;4991721;28;20034;-67
2022/06/27 05:25:49;;;;;;;10.77;6.05;;;;;;;17.14;100.00;101463.72;4989168;28;20041;-67
2022/06/27 05:28:15;;;;;;;10.18;5.85;;;;;;;17.23;100.00;101476.50;4989532;28;20034;-67
2022/06/27 05:30:40;;;;;;;10.27;6.05;;;;;;;17.27;100.00;101469.16;4990476;28;20459;-67
2022/06/27 05:33:06;;;;;;;11.85;6.10;;;;;;;17.31;100.00;101454.63;4990173;28;20190;-67
2022/06/27 05:35:32;;;;;;;11.30;6.20;;;;;;;17.36;100.00;101458.69;4987604;28;20042;-67
2022/06/27 05:37:59;;;;;;;10.82;5.93;;;;;;;17.39;100.00;101484.41;4980151;28;20031;-67
2022/06/27 05:40:25;;;;;;;11.98;6.80;;;;;;;17.45;100.00;101494.75;4991326;28;20041;-68
2022/06/27 05:42:50;;;;;;;10.85;6.53;;;;;;;17.53;100.00;101495.13;4992174;28;20023;-68
2022/06/27 05:45:16;;;;;;;11.25;6.15;;;;;;;17.62;100.00;101487.44;4991041;28;20165;-68
2022/06/27 05:47:42;;;;;;;12.18;5.63;;;;;;;17.64;100.00;101489.06;4991855;28;20504;-68
2022/06/27 05:50:08;;;;;;;10.25;5.97;;;;;;;17.69;100.00;101486.09;5010691;28;20084;-68
2022/06/27 05:52:34;;;;;;;10.57;6.25;;;;;;;17.74;100.00;101501.91;4996328;28;20065;-68
2022/06/27 05:55:00;;;;;;;13.43;6.55;;;;;;;17.77;100.00;101509.72;5003806;28;20053;-68
2022/06/27 05:57:27;;;;;;;9.20;6.25;;;;;;;17.80;100.00;101506.81;4987050;28;20026;-67
2022/06/27 05:59:55;;;;;;;11.98;5.97;;;;;;;17.86;100.00;101519.81;4991506;28;20510;-67
2022/06/27 06:02:22;;;;;;;12.00;7.45;;;;;;;17.90;100.00;101526.69;4995604;28;20057;-68
2022/06/27 06:04:48;;;;;;;11.07;6.10;;;;;;;18.02;100.00;101533.13;4990319;28;20026;-68
2022/06/27 06:07:14;;;;;;;17.95;7.70;;;;;;;18.12;100.00;101536.94;4991070;28;20386;-67
2022/06/27 06:09:41;;;;;;;9.90;6.57;;;;;;;18.25;100.00;101536.97;4991352;28;20022;-67
2022/06/27 06:12:09;;;;;;;13.02;7.30;;;;;;;18.38;100.00;101544.22;4990849;28;20034;-68
2022/06/27 06:14:36;;;;;;;9.73;5.80;;;;;;;18.44;100.00;101535.72;4988097;28;20038;-68
2022/06/27 06:17:02;;;;;;;10.00;6.38;;;;;;;18.47;100.00;101533.72;4994154;28;20397;-68
2022/06/27 06:19:28;;;;;;;11.43;6.70;;;;;;;18.51;100.00;101531.69;5009071;28;20030;-68
2022/06/27 06:21:53;;;;;;;9.63;6.50;;;;;;;18.59;100.00;101540.06;4995044;28;20023;-68
2022/06/27 06:24:19;;;;;;;9.98;6.20;;;;;;;18.69;100.00;101537.63;4993810;28;20026;-68
2022/06/27 06:26:45;;;;;;;10.55;6.35;;;;;;;18.77;100.00;101537.97;4990971;28;20034;-68
2022/06/27 06:29:18;;;;;;;11.52;6.70;;;;;;;18.91;100.00;101553.13;5009327;28;20101;-68
2022/06/27 06:31:45;;;;;;;9.75;6.15;;;;;;;18.94;100.00;101552.94;4995755;28;20050;-68
2022/06/27 06:34:11;;;;;;;13.90;6.80;;;;;;;18.97;100.00;101560.75;4995517;28;20443;-68
2022/06/27 06:36:38;;;;;;;11.85;6.63;;;;;;;19.04;100.00;101568.41;4994207;28;20076;-67
2022/06/27 06:39:04;;;;;;;11.73;6.22;;;;;;;19.08;100.00;101578.81;4993928;28;20038;-68
2022/06/27 06:41:30;;;;;;;11.75;6.38;;;;;;;19.12;100.00;101585.69;4994904;28;20442;-68
2022/06/27 06:43:56;;;;;;;10.43;6.82;;;;;;;19.14;100.00;101586.47;4994662;28;20157;-66
2022/06/27 06:46:22;;;;;;;10.93;6.38;;;;;;;19.15;100.00;101580.09;4992937;28;20037;-67
2022/06/27 06:48:47;;;;;;;12.10;6.35;;;;;;;19.07;100.00;101592.38;5009154;28;20022;-68
2022/06/27 06:51:16;;;;;;;11.25;6.57;;;;;;;18.99;100.00;101576.78;4994584;28;20030;-68
2022/06/27 06:53:41;;;;;;;12.77;6.88;;;;;;;18.94;100.00;101560.13;4981611;28;20545;-68
2022/06/27 06:56:07;;;;;;;11.00;6.50;;;;;;;18.88;100.00;101536.38;5016207;28;20038;-68
2022/06/27 06:58:34;;;;;;;10.10;6.35;;;;;;;18.85;100.00;101524.03;5001807;28;20030;-68
2022/06/27 07:01:01;;;;;;;12.73;6.40;;;;;;;18.88;100.00;101517.59;4997767;28;20612;-68
2022/06/27 07:03:27;;;;;;;11.50;6.75;;;;;;;18.91;100.00;101515.56;5001260;28;20022;-68
2022/06/27 07:05:54;;;;;;;12.10;6.13;;;;;;;18.94;100.00;101522.53;4998499;28;20389;-68
2022/06/27 07:08:20;;;;;;;15.43;7.53;;;;;;;18.97;100.00;101509.78;4991087;28;20014;-68
2022/06/27 07:10:46;;;;;;;9.40;5.97;;;;;;;18.97;100.00;101509.78;4997952;28;20120;-68
2022/06/27 07:13:11;;;;;;;12.52;6.25;;;;;;;18.97;100.00;101503.56;5016088;28;20041;-68
2022/06/27 07:15:37;;;;;;;8.90;6.22;;;;;;;18.95;100.00;101489.38;4998810;28;20038;-68
2022/06/27 07:18:04;;;;;;;14.98;6.30;;;;;;;18.98;100.00;101497.22;4996751;28;20031;-67
2022/06/27 07:20:30;;;;;;;10.15;5.97;;;;;;;19.04;100.00;101496.81;4994680;28;20030;-68
2022/06/27 07:22:56;;;;;;;9.95;5.85;;;;;;;19.16;100.00;101513.88;4992981;28;20040;-68
2022/06/27 07:25:22;;;;;;;12.82;6.38;;;;;;;19.30;100.00;101507.50;4993672;28;20026;-68
2022/06/27 07:27:49;;;;;;;10.73;7.00;;;;;;;19.47;100.00;101508.97;4978321;28;20050;-68
2022/06/27 07:30:15;;;;;;;12.98;6.53;;;;;;;19.58;98.27;101518.97;4993345;28;20033;-68
2022/06/27 07:32:42;;;;;;;13.60;6.55;;;;;;;19.56;97.33;101528.97;5008096;28;20494;-67
2022/06/27 07:35:11;;;;;;;14.13;6.72;;;;;;;19.47;97.46;101525.09;4993732;28;20026;-67
2022/06/27 07:37:44;;;;;;;10.73;6.30;;;;;;;19.36;98.43;101520.50;4992503;28;20048;-67
2022/06/27 07:40:10;;;;;;;10.27;6.53;;;;;;;19.34;98.03;101521.59;4992779;28;20501;-68
2022/06/27 07:42:35;;;;;;;11.10;6.38;;;;;;;19.34;99.29;101527.81;4998230;28;20038;-68
2022/06/27 07:45:01;;;;;;;11.45;6.50;;;;;;;19.39;99.15;101543.59;4996486;28;20033;-64
2022/06/27 07:47:26;;;;;;;14.30;7.13;;;;;;;19.42;99.13;101556.81;5004232;28;20105;-64
2022/06/27 07:49:52;;;;;;;15.30;6.90;;;;;;;19.41;97.82;101547.91;5012508;28;20096;-64
2022/06/27 07:52:17;;;;;;;11.40;6.55;;;;;;;19.46;98.43;101550.22;5011260;28;20106;-62
2022/06/27 07:54:43;;;;;;;11.90;6.30;;;;;;;19.57;96.98;101549.47;5003298;28;20074;-67
2022/06/27 07:57:10;;;;;;;15.18;6.60;;;;;;;19.63;96.96;101549.91;4992537;28;20162;-67
2022/06/27 07:59:38;;;;;;;12.20;5.78;;;;;;;19.63;96.17;101547.22;4992208;28;20398;-67
2022/06/27 08:02:04;;;;;;;10.48;6.07;;;;;;;19.71;95.58;101548.50;4994892;28;20026;-67
2022/06/27 08:04:29;;;;;;;10.20;5.70;;;;;;;19.83;94.41;101549.44;4986876;28;20030;-67
2022/06/27 08:06:55;;;;;;;12.98;5.65;;;;;;;19.95;94.71;101549.41;4993321;28;20161;-65
2022/06/27 08:09:21;;;;;;;11.13;5.50;;;;;;;20.12;93.56;101555.38;4988088;28;20038;-68
2022/06/27 08:11:47;;;;;;;10.52;6.00;;;;;;;20.15;92.82;101563.19;4993197;28;20030;-68
2022/06/27 08:14:16;;;;;;;13.68;5.53;;;;;;;20.13;91.33;101557.94;4992673;28;20445;-65
2022/06/27 08:16:42;;;;;;;12.50;6.43;;;;;;;20.11;92.31;101554.50;4973258;28;20037;-67
2022/06/27 08:19:09;;;;;;;12.43;5.65;;;;;;;20.09;94.60;101547.53;4992262;28;20034;-67
2022/06/27 08:21:35;;;;;;;10.63;6.15;;;;;;;20.11;93.96;101548.28;4992100;28;20077;-66
2022/06/27 08:24:03;;;;;;;12.07;6.07;;;;;;;20.11;94.27;101549.13;4997308;28;20034;-68
2022/06/27 08:26:29;;;;;;;15.05;6.72;;;;;;;20.18;93.78;101544.16;5009072;28;20025;-68
2022/06/27 08:28:56;;;;;;;8.80;5.80;;;;;;;20.38;95.85;101539.97;4988385;28;20022;-68
2022/06/27 08:31:22;;;;;;;11.07;5.82;;;;;;;20.81;95.39;101533.19;4983158;28;20077;-68
2022/06/27 08:33:49;;;;;;;10.15;5.32;;;;;;;21.37;91.35;101542.28;4988462;28;20026;-68
2022/06/27 08:36:17;;;;;;;12.48;5.50;;;;;;;21.70;87.55;101556.78;4990528;28;20113;-68
2022/06/27 08:38:46;;;;;;;8.43;5.13;;;;;;;21.81;83.86;101555.91;4991716;28;20022;-69
2022/06/27 08:41:12;;;;;;;11.10;5.25;;;;;;;21.94;82.94;101567.41;4990838;28;20034;-68
2022/06/27 08:43:38;;;;;;;13.35;5.38;;;;;;;22.23;80.77;101583.88;5003990;28;20027;-67
2022/06/27 08:46:06;;;;;;;10.20;4.97;;;;;;;22.34;80.45;101585.69;4985474;28;20113;-68
2022/06/27 08:48:32;;;;;;;10.70;5.13;;;;;;;22.34;78.55;101574.91;4985187;28;20027;-68
2022/06/27 08:50:59;;;;;;;10.48;4.50;;;;;;;22.30;77.29;101576.13;4993283;28;20112;-68
2022/06/27 08:53:25;;;;;;;11.27;5.13;;;;;;;22.27;81.51;101589.88;5003855;28;20056;-69
2022/06/27 08:55:51;;;;;;;10.60;5.05;;;;;;;22.08;78.12;101604.03;4996919;28;20581;-67
2022/06/27 08:58:17;;;;;;;12.27;5.25;;;;;;;21.85;78.53;101585.19;4985117;28;20133;-67
2022/06/27 09:00:45;;;;;;;10.75;4.68;;;;;;;21.71;77.15;101586.28;4988716;28;20054;-69
2022/06/27 09:03:12;;;;;;;9.38;5.75;;;;;;;21.64;78.85;101589.59;4992067;28;20113;-67
2022/06/27 09:05:37;;;;;;;12.70;5.90;;;;;;;21.49;81.52;101597.06;4989644;28;20729;-67
2022/06/27 09:08:07;;;;;;;11.20;5.32;;;;;;;21.40;82.84;101599.50;4990961;28;20076;-68
2022/06/27 09:10:42;;;;;;;11.80;5.10;;;;;;;21.38;79.92;101595.19;4990218;28;20041;-69
2022/06/27 09:13:13;;;;;;;10.45;5.65;;;;;;;21.29;81.20;101602.16;4992671;28;20022;-68
2022/06/27 09:15:39;;;;;;;12.07;5.43;;;;;;;21.18;80.73;101604.88;4992312;28;20534;-67
2022/06/27 09:18:07;;;;;;;10.13;4.38;;;;;;;21.11;79.64;101599.06;4991941;28;20101;-67
2022/06/27 09:21:04;;;;;;;11.20;4.72;;;;;;;21.13;81.35;101594.44;4991862;28;20381;-67
2022/06/27 09:23:41;;;;;;;8.55;4.40;;;;;;;21.14;81.08;101596.16;4992407;28;20054;-68
2022/06/27 09:26:10;;;;;;;9.25;4.47;;;;;;;21.24;79.96;101583.69;4992389;28;20026;-68
2022/06/27 09:28:48;;;;;;;7.07;3.97;;;;;;;21.27;79.41;101587.97;4991989;28;20026;-67
2022/06/27 09:31:26;;;;;;;9.00;3.58;;;;;;;21.35;77.82;101587.38;4992402;28;20474;-68
2022/06/27 09:34:10;;;;;;;7.90;3.20;;;;;;;21.54;76.26;101587.63;4992480;28;20026;-68
2022/06/27 09:36:42;;;;;;;7.60;3.80;;;;;;;21.83;75.94;101587.16;5007306;28;20383;-68
2022/06/27 09:39:22;;;;;;;9.10;3.28;;;;;;;22.01;75.87;101600.97;4991103;28;20027;-67
2022/06/27 09:41:59;;;;;;;7.38;3.60;;;;;;;22.02;75.03;101597.31;4992202;28;20069;-68
2022/06/27 09:44:34;;;;;;;11.40;4.03;;;;;;;21.93;73.05;101600.72;5007191;28;20045;-68
2022/06/27 09:47:11;;;;;;;8.93;4.45;;;;;;;21.82;76.05;101598.06;4991032;28;20029;-68
2022/06/27 09:49:43;;;;;;;7.35;4.10;;;;;;;21.74;75.78;101595.97;4992674;28;20038;-68
2022/06/27 09:52:11;;;;;;;11.43;4.15;;;;;;;21.68;77.00;101589.25;5010914;28;20029;-68
2022/06/27 09:54:38;;;;;;;10.40;3.92;;;;;;;21.71;79.71;101591.69;4996040;28;20551;-68
2022/06/27 09:57:05;;;;;;;7.97;4.25;;;;;;;21.83;76.05;101597.06;4995794;28;20478;-68
2022/06/27 09:59:31;;;;;;;9.27;3.90;;;;;;;21.98;75.67;101585.03;4995465;28;20117;-67
2022/06/27 10:01:57;;;;;;;8.10;3.42;;;;;;;22.18;75.00;101590.66;4994624;28;20037;-68
2022/06/27 10:04:28;;;;;;;9.27;3.80;;;;;;;22.27;74.21;101585.34;4995715;28;20034;-67
2022/06/27 10:06:55;;;;;;;9.90;3.55;;;;;;;22.39;72.67;101591.59;4995904;28;20034;-68
2022/06/27 10:09:24;;;;;;;8.57;3.60;;;;;;;22.40;71.81;101590.63;4995293;28;20462;-67
2022/06/27 10:12:24;;;;;;;11.02;4.13;;;;;;;22.17;71.42;101583.53;4995623;28;20026;-67
2022/06/27 10:15:11;;;;;;;11.38;3.50;;;;;;;22.09;72.91;101595.81;4995722;28;20085;-68
2022/06/27 10:17:38;;;;;;;11.32;3.40;;;;;;;22.09;72.10;101578.78;4995192;28;20030;-67
2022/06/27 10:20:27;;;;;;;9.65;3.30;;;;;;;22.03;71.61;101590.06;4994317;28;20030;-67
2022/06/27 10:23:17;;;;;;;7.55;2.60;;;;;;;21.90;70.13;101588.34;4994452;28;20034;-67
2022/06/27 10:25:46;;;;;;;13.68;5.05;;;;;;;21.81;76.03;101591.81;4985082;28;20038;-67
2022/06/27 10:28:12;;;;;;;13.50;3.00;;;;;;;21.66;75.01;101590.34;4995429;28;20018;-70
2022/06/27 10:30:39;;;;;;;8.15;2.70;;;;;;;21.61;75.49;101601.50;4995155;28;20022;-68
2022/06/27 10:33:26;;;;;;;10.25;3.67;;;;;;;21.50;78.43;101593.41;4995252;28;20038;-68
2022/06/27 10:36:10;;;;;;;6.53;2.80;;;;;;;21.43;78.19;101584.91;5010460;28;20030;-68
2022/06/27 10:38:48;;;;;;;8.98;2.85;;;;;;;21.39;78.34;101584.28;4994990;28;20023;-68
2022/06/27 10:41:19;;;;;;;5.75;2.70;;;;;;;21.36;79.40;101589.09;4995318;28;20023;-69
2022/06/27 10:43:48;;;;;;;;;;;;;;;21.26;81.48;101594.34;4995440;28;20030;-67
2022/06/27 10:46:13;;;;;;;7.90;3.08;;;;;;;21.20;82.36;101589.44;4994189;28;19914;-68
2022/06/27 10:48:48;;;;;;;6.28;2.67;;;;;;;21.14;82.50;101598.84;4994809;28;20089;-68
2022/06/27 10:51:24;;;;;;;6.03;2.90;;;;;;;21.20;83.43;101597.50;5010357;28;20101;-68
2022/06/27 10:54:13;;;;;;;10.13;3.17;;;;;;;21.24;83.12;101609.75;4994859;28;20627;-68
2022/06/27 10:56:44;;;;;;;8.02;3.30;;;;;;;21.42;80.08;101591.28;4993626;28;20441;-67
2022/06/27 10:59:12;;;;;;;;;;;;;;;21.69;81.85;101590.09;4995228;28;20100;-68
2022/06/27 11:01:39;;;;;;;11.80;3.25;;;;;;;21.90;80.35;101599.16;4992992;28;20009;-68
2022/06/27 11:04:04;;;;;;;8.88;3.28;;;;;;;22.01;79.57;101587.50;4994731;28;20022;-68
2022/06/27 11:06:29;;;;;;;7.20;3.35;;;;;;;22.05;77.19;101591.66;4994549;28;20446;-68
2022/06/27 11:08:55;;;;;;;9.32;3.78;;;;;;;22.03;74.11;101593.59;4994576;28;20026;-68
2022/06/27 11:11:26;;;;;;;6.90;3.30;;;;;;;22.09;75.77;101586.88;4993370;28;20062;-68
2022/06/27 11:13:57;;;;;;;11.15;3.75;;;;;;;22.16;75.74;101581.81;4994556;28;20030;-68
2022/06/27 11:16:24;;;;;;;8.30;4.03;;;;;;;22.23;74.09;101586.56;4994255;28;20037;-68
2022/06/27 11:18:53;;;;;;;10.90;4.20;;;;;;;22.33;72.44;101584.00;4994254;28;20058;-68